sensor_id;sensor_type;location;lat;lon;timestamp;pressure;altitude;pressure_sealevel;temperature;humidity
72896;BME280;61036;53.224;6.554;2023-03-01T00:00:41;103312.38;;;1.96;100.00
72896;BME280;61036;53.224;6.554;2023-03-01T00:03:12;103305.28;;;1.81;100.00
72896;BME280;61036;53.224;6.554;2023-03-01T00:05:46;103307.03;;;1.79;100.00
72896;BME280;61036;53.224;6.554;2023-03-01T00:08:12;103301.72;;;1.78;100.00
72896;BME280;61036;53.224;6.554;2023-03-01T00:10:38;103297.31;;;1.81;100.00
72896;BME280;61036;53.224;6.554;2023-03-01T00:13:03;103301.72;;;1.86;100.00
72896;BME280;61036;53.224;6.554;2023-03-01T00:15:31;103299.06;;;1.86;100.00
72896;BME280;61036;53.224;6.554;2023-03-01T00:17:57;103292.88;;;1.83;100.00
72896;BME280;61036;53.224;6.554;2023-03-01T00:20:23;103290.19;;;1.80;100.00
72896;BME280;61036;53.224;6.554;2023-03-01T00:22:48;103290.19;;;1.82;100.00
72896;BME280;61036;53.224;6.554;2023-03-01T00:25:14;103293.75;;;1.69;100.00
72896;BME280;61036;53.224;6.554;2023-03-01T00:27:42;103299.94;;;1.60;100.00
72896;BME280;61036;53.224;6.554;2023-03-01T00:30:08;103299.03;;;1.61;100.00
72896;BME280;61036;53.224;6.554;2023-03-01T00:32:34;103303.47;;;1.65;100.00
72896;BME280;61036;53.224;6.554;2023-03-01T00:34:59;103302.59;;;1.72;100.00
72896;BME280;61036;53.224;6.554;2023-03-01T00:37:25;103301.72;;;1.75;100.00
72896;BME280;61036;53.224;6.554;2023-03-01T00:39:50;103289.28;;;1.74;100.00
72896;BME280;61036;53.224;6.554;2023-03-01T00:42:16;103280.41;;;1.58;100.00
72896;BME280;61036;53.224;6.554;2023-03-01T00:44:42;103293.69;;;1.53;100.00
72896;BME280;61036;53.224;6.554;2023-03-01T00:47:08;103299.06;;;1.63;100.00
72896;BME280;61036;53.224;6.554;2023-03-01T00:49:34;103295.50;;;1.70;100.00
72896;BME280;61036;53.224;6.554;2023-03-01T00:52:00;103299.94;;;1.63;100.00
72896;BME280;61036;53.224;6.554;2023-03-01T00:54:25;103287.53;;;1.64;100.00
72896;BME280;61036;53.224;6.554;2023-03-01T00:56:51;103297.28;;;1.66;100.00
72896;BME280;61036;53.224;6.554;2023-03-01T00:59:16;103295.50;;;1.67;100.00
72896;BME280;61036;53.224;6.554;2023-03-01T01:01:42;103295.47;;;1.62;100.00
72896;BME280;61036;53.224;6.554;2023-03-01T01:04:10;103294.59;;;1.54;100.00
72896;BME280;61036;53.224;6.554;2023-03-01T01:06:44;103294.59;;;1.58;100.00
72896;BME280;61036;53.224;6.554;2023-03-01T01:09:14;103293.72;;;1.58;100.00
72896;BME280;61036;53.224;6.554;2023-03-01T01:11:49;103292.84;;;1.67;100.00
72896;BME280;61036;53.224;6.554;2023-03-01T01:14:15;103289.28;;;1.54;100.00
72896;BME280;61036;53.224;6.554;2023-03-01T01:16:41;103282.19;;;1.51;100.00
72896;BME280;61036;53.224;6.554;2023-03-01T01:19:07;103281.31;;;1.51;100.00
72896;BME280;61036;53.224;6.554;2023-03-01T01:21:32;103272.44;;;1.58;100.00
72896;BME280;61036;53.224;6.554;2023-03-01T01:23:58;103275.09;;;1.70;100.00
72896;BME280;61036;53.224;6.554;2023-03-01T01:26:29;103272.47;;;1.81;100.00
72896;BME280;61036;53.224;6.554;2023-03-01T01:28:55;103268.91;;;1.64;100.00
72896;BME280;61036;53.224;6.554;2023-03-01T01:31:22;103272.41;;;1.47;100.00
72896;BME280;61036;53.224;6.554;2023-03-01T01:33:52;103266.19;;;1.33;100.00
72896;BME280;61036;53.224;6.554;2023-03-01T01:36:17;103260.88;;;1.27;100.00
72896;BME280;61036;53.224;6.554;2023-03-01T01:38:43;103249.34;;;1.40;100.00
72896;BME280;61036;53.224;6.554;2023-03-01T01:41:10;103240.50;;;1.47;100.00
72896;BME280;61036;53.224;6.554;2023-03-01T01:43:44;103244.94;;;1.47;100.00
72896;BME280;61036;53.224;6.554;2023-03-01T01:46:18;103244.94;;;1.39;100.00
72896;BME280;61036;53.224;6.554;2023-03-01T01:48:49;103245.78;;;1.27;100.00
72896;BME280;61036;53.224;6.554;2023-03-01T01:51:23;103248.47;;;1.40;100.00
72896;BME280;61036;53.224;6.554;2023-03-01T01:53:55;103254.69;;;1.42;100.00
72896;BME280;61036;53.224;6.554;2023-03-01T01:56:23;103248.47;;;1.30;100.00
72896;BME280;61036;53.224;6.554;2023-03-01T01:58:50;103243.09;;;1.13;100.00
72896;BME280;61036;53.224;6.554;2023-03-01T02:01:16;103237.75;;;1.07;100.00
72896;BME280;61036;53.224;6.554;2023-03-01T02:03:43;103237.75;;;1.07;100.00
72896;BME280;61036;53.224;6.554;2023-03-01T02:06:38;103235.13;;;1.23;100.00
72896;BME280;61036;53.224;6.554;2023-03-01T02:09:10;103231.56;;;1.07;100.00
72896;BME280;61036;53.224;6.554;2023-03-01T02:11:37;103235.09;;;1.01;100.00
72896;BME280;61036;53.224;6.554;2023-03-01T02:14:03;103229.78;;;1.01;100.00
72896;BME280;61036;53.224;6.554;2023-03-01T02:16:32;103225.38;;;1.11;100.00
72896;BME280;61036;53.224;6.554;2023-03-01T02:18:58;103226.25;;;1.10;100.00
72896;BME280;61036;53.224;6.554;2023-03-01T02:26:52;103212.06;;;1.00;100.00
72896;BME280;61036;53.224;6.554;2023-03-01T02:29:23;103206.75;;;1.02;100.00
72896;BME280;61036;53.224;6.554;2023-03-01T02:31:51;103200.53;;;0.95;100.00
72896;BME280;61036;53.224;6.554;2023-03-01T02:34:22;103196.94;;;0.87;100.00
72896;BME280;61036;53.224;6.554;2023-03-01T02:36:56;103197.00;;;0.98;100.00
72896;BME280;61036;53.224;6.554;2023-03-01T02:39:36;103196.97;;;0.90;100.00
72896;BME280;61036;53.224;6.554;2023-03-01T02:42:10;103177.50;;;0.85;100.00
72896;BME280;61036;53.224;6.554;2023-03-01T02:44:38;103180.97;;;0.75;100.00
72896;BME280;61036;53.224;6.554;2023-03-01T02:47:04;103182.78;;;0.76;100.00
72896;BME280;61036;53.224;6.554;2023-03-01T02:49:34;103184.47;;;0.55;100.00
72896;BME280;61036;53.224;6.554;2023-03-01T02:55:01;103190.59;;;0.48;100.00
72896;BME280;61036;53.224;6.554;2023-03-01T02:57:29;103186.16;;;0.44;100.00
72896;BME280;61036;53.224;6.554;2023-03-01T02:59:56;103166.66;;;0.39;100.00
72896;BME280;61036;53.224;6.554;2023-03-01T03:02:28;103168.50;;;0.46;100.00
72896;BME280;61036;53.224;6.554;2023-03-01T03:05:13;103170.22;;;0.36;100.00
72896;BME280;61036;53.224;6.554;2023-03-01T03:07:43;103175.56;;;0.50;100.00
72896;BME280;61036;53.224;6.554;2023-03-01T03:10:18;103173.81;;;0.52;100.00
72896;BME280;61036;53.224;6.554;2023-03-01T03:12:49;103171.94;;;0.33;100.00
72896;BME280;61036;53.224;6.554;2023-03-01T03:15:17;103162.19;;;0.26;100.00
72896;BME280;61036;53.224;6.554;2023-03-01T03:17:43;103162.13;;;0.13;100.00
72896;BME280;61036;53.224;6.554;2023-03-01T03:20:11;103165.66;;;0.14;100.00
72896;BME280;61036;53.224;6.554;2023-03-01T03:22:40;103163.91;;;0.16;100.00
72896;BME280;61036;53.224;6.554;2023-03-01T03:25:07;103163.97;;;0.30;100.00
72896;BME280;61036;53.224;6.554;2023-03-01T03:27:37;103172.91;;;0.45;100.00
72896;BME280;61036;53.224;6.554;2023-03-01T03:30:05;103169.44;;;0.57;100.00
72896;BME280;61036;53.224;6.554;2023-03-01T03:32:36;103165.88;;;0.57;100.00
72896;BME280;61036;53.224;6.554;2023-03-01T03:35:05;103174.75;;;0.57;100.00
72896;BME280;61036;53.224;6.554;2023-03-01T03:37:41;103174.75;;;0.68;100.00
72896;BME280;61036;53.224;6.554;2023-03-01T03:40:25;103180.84;;;0.44;100.00
72896;BME280;61036;53.224;6.554;2023-03-01T03:42:51;103173.75;;;0.34;100.00
72896;BME280;61036;53.224;6.554;2023-03-01T03:45:17;103178.13;;;0.26;100.00
72896;BME280;61036;53.224;6.554;2023-03-01T03:47:45;103179.06;;;0.34;100.00
72896;BME280;61036;53.224;6.554;2023-03-01T03:50:15;103176.41;;;0.37;100.00
72896;BME280;61036;53.224;6.554;2023-03-01T03:52:41;103171.13;;;0.40;100.00
72896;BME280;61036;53.224;6.554;2023-03-01T03:55:08;103171.13;;;0.48;100.00
72896;BME280;61036;53.224;6.554;2023-03-01T03:57:35;103167.56;;;0.41;100.00
72896;BME280;61036;53.224;6.554;2023-03-01T04:00:00;103163.22;;;0.52;100.00
72896;BME280;61036;53.224;6.554;2023-03-01T04:02:40;103164.06;;;0.43;100.00
72896;BME280;61036;53.224;6.554;2023-03-01T04:05:07;103163.16;;;0.40;100.00
72896;BME280;61036;53.224;6.554;2023-03-01T04:07:34;103169.41;;;0.53;100.00
72896;BME280;61036;53.224;6.554;2023-03-01T04:10:02;103180.91;;;0.55;100.00
72896;BME280;61036;53.224;6.554;2023-03-01T04:12:28;103176.50;;;0.55;100.00
72896;BME280;61036;53.224;6.554;2023-03-01T04:14:54;103176.47;;;0.54;100.00
72896;BME280;61036;53.224;6.554;2023-03-01T04:17:19;103178.22;;;0.47;100.00
72896;BME280;61036;53.224;6.554;2023-03-01T04:19:44;103180.84;;;0.44;100.00
72896;BME280;61036;53.224;6.554;2023-03-01T04:22:14;103180.88;;;0.45;100.00
72896;BME280;61036;53.224;6.554;2023-03-01T04:24:43;103174.59;;;0.33;100.00
72896;BME280;61036;53.224;6.554;2023-03-01T04:27:09;103172.66;;;0.01;100.00
72896;BME280;61036;53.224;6.554;2023-03-01T04:29:34;103167.38;;;0.01;100.00
72896;BME280;61036;53.224;6.554;2023-03-01T04:32:00;103164.69;;;-0.01;100.00
72896;BME280;61036;53.224;6.554;2023-03-01T04:34:25;103159.22;;;-0.25;100.00
72896;BME280;61036;53.224;6.554;2023-03-01T04:36:53;103157.47;;;-0.23;100.00
72896;BME280;61036;53.224;6.554;2023-03-01T04:39:19;103164.53;;;-0.27;100.00
72896;BME280;61036;53.224;6.554;2023-03-01T04:41:44;103157.41;;;-0.31;100.00
72896;BME280;61036;53.224;6.554;2023-03-01T04:44:10;103153.91;;;-0.30;100.00
72896;BME280;61036;53.224;6.554;2023-03-01T04:46:36;103150.34;;;-0.32;100.00
72896;BME280;61036;53.224;6.554;2023-03-01T04:49:02;103147.69;;;-0.27;100.00
72896;BME280;61036;53.224;6.554;2023-03-01T04:51:28;103146.69;;;-0.48;100.00
72896;BME280;61036;53.224;6.554;2023-03-01T04:53:54;103143.13;;;-0.51;100.00
72896;BME280;61036;53.224;6.554;2023-03-01T04:56:20;103132.41;;;-0.63;100.00
72896;BME280;61036;53.224;6.554;2023-03-01T04:58:48;103134.25;;;-0.56;100.00
72896;BME280;61036;53.224;6.554;2023-03-01T05:01:19;103133.31;;;-0.63;100.00
72896;BME280;61036;53.224;6.554;2023-03-01T05:03:48;103125.38;;;-0.63;100.00
72896;BME280;61036;53.224;6.554;2023-03-01T05:06:15;103127.97;;;-0.69;100.00
72896;BME280;61036;53.224;6.554;2023-03-01T05:08:43;103122.66;;;-0.69;100.00
72896;BME280;61036;53.224;6.554;2023-03-01T05:11:10;103117.38;;;-0.67;100.00
72896;BME280;61036;53.224;6.554;2023-03-01T05:13:39;103117.38;;;-0.67;100.00
72896;BME280;61036;53.224;6.554;2023-03-01T05:16:06;103109.47;;;-0.63;100.00
72896;BME280;61036;53.224;6.554;2023-03-01T05:18:37;103104.03;;;-0.77;100.00
72896;BME280;61036;53.224;6.554;2023-03-01T05:21:08;103101.53;;;-0.61;100.00
72896;BME280;61036;53.224;6.554;2023-03-01T05:23:34;103094.34;;;-0.73;100.00
72896;BME280;61036;53.224;6.554;2023-03-01T05:26:01;103098.00;;;-0.62;100.00
72896;BME280;61036;53.224;6.554;2023-03-01T05:28:29;103094.41;;;-0.68;100.00
72896;BME280;61036;53.224;6.554;2023-03-01T05:30:55;103094.47;;;-0.62;100.00
72896;BME280;61036;53.224;6.554;2023-03-01T05:33:21;103094.41;;;-0.67;100.00
72896;BME280;61036;53.224;6.554;2023-03-01T05:35:48;103095.25;;;-0.71;100.00
72896;BME280;61036;53.224;6.554;2023-03-01T05:38:15;103092.72;;;-0.57;100.00
72896;BME280;61036;53.224;6.554;2023-03-01T05:40:46;103094.53;;;-0.49;100.00
72896;BME280;61036;53.224;6.554;2023-03-01T05:43:14;103087.53;;;-0.40;100.00
72896;BME280;61036;53.224;6.554;2023-03-01T05:45:40;103081.25;;;-0.56;100.00
72896;BME280;61036;53.224;6.554;2023-03-01T05:48:06;103079.38;;;-0.66;100.00
72896;BME280;61036;53.224;6.554;2023-03-01T05:50:34;103083.88;;;-0.59;100.00
72896;BME280;61036;53.224;6.554;2023-03-01T05:55:28;103068.78;;;-0.71;100.00
72896;BME280;61036;53.224;6.554;2023-03-01T05:57:54;103071.31;;;-0.85;100.00
72896;BME280;61036;53.224;6.554;2023-03-01T06:00:20;103075.91;;;-0.62;100.00
72896;BME280;61036;53.224;6.554;2023-03-01T06:02:49;103082.03;;;-0.68;100.00
72896;BME280;61036;53.224;6.554;2023-03-01T06:05:17;103083.84;;;-0.65;100.00
72896;BME280;61036;53.224;6.554;2023-03-01T06:07:43;103083.00;;;-0.55;100.00
72896;BME280;61036;53.224;6.554;2023-03-01T06:10:10;103082.25;;;-0.42;100.00
72896;BME280;61036;53.224;6.554;2023-03-01T06:12:37;103088.47;;;-0.32;100.00
72896;BME280;61036;53.224;6.554;2023-03-01T06:15:04;103089.34;;;-0.33;100.00
72896;BME280;61036;53.224;6.554;2023-03-01T06:17:32;103083.19;;;-0.32;100.00
72896;BME280;61036;53.224;6.554;2023-03-01T06:19:58;103085.72;;;-0.46;100.00
72896;BME280;61036;53.224;6.554;2023-03-01T06:22:23;103092.91;;;-0.33;100.00
72896;BME280;61036;53.224;6.554;2023-03-01T06:24:49;103090.06;;;-0.59;100.00
72896;BME280;61036;53.224;6.554;2023-03-01T06:27:15;103095.34;;;-0.60;100.00
72896;BME280;61036;53.224;6.554;2023-03-01T06:29:41;103099.78;;;-0.55;100.00
72896;BME280;61036;53.224;6.554;2023-03-01T06:32:06;103103.53;;;-0.30;100.00
72896;BME280;61036;53.224;6.554;2023-03-01T06:34:33;103106.16;;;-0.33;100.00
72896;BME280;61036;53.224;6.554;2023-03-01T06:36:59;103116.81;;;-0.27;100.00
72896;BME280;61036;53.224;6.554;2023-03-01T06:39:24;103108.88;;;-0.19;100.00
72896;BME280;61036;53.224;6.554;2023-03-01T06:41:50;103107.13;;;-0.15;100.00
72896;BME280;61036;53.224;6.554;2023-03-01T06:44:15;103106.34;;;-0.02;100.00
72896;BME280;61036;53.224;6.554;2023-03-01T06:46:44;103108.13;;;0.05;100.00
72896;BME280;61036;53.224;6.554;2023-03-01T06:49:09;103109.09;;;0.19;100.00
72896;BME280;61036;53.224;6.554;2023-03-01T06:51:36;103107.38;;;0.29;100.00
72896;BME280;61036;53.224;6.554;2023-03-01T06:54:03;103113.59;;;0.39;100.00
72896;BME280;61036;53.224;6.554;2023-03-01T06:56:30;103116.25;;;0.37;100.00
72896;BME280;61036;53.224;6.554;2023-03-01T06:58:55;103113.53;;;0.23;100.00
72896;BME280;61036;53.224;6.554;2023-03-01T07:01:21;103111.81;;;0.33;100.00
72896;BME280;61036;53.224;6.554;2023-03-01T07:03:46;103116.34;;;0.57;100.00
72896;BME280;61036;53.224;6.554;2023-03-01T07:06:12;103120.78;;;0.75;100.00
72896;BME280;61036;53.224;6.554;2023-03-01T07:08:37;103114.63;;;0.96;100.00
72896;BME280;61036;53.224;6.554;2023-03-01T07:11:03;103115.50;;;0.95;100.00
72896;BME280;61036;53.224;6.554;2023-03-01T07:13:29;103116.44;;;1.16;100.00
72896;BME280;61036;53.224;6.554;2023-03-01T07:15:55;103110.22;;;1.23;100.00
72896;BME280;61036;53.224;6.554;2023-03-01T07:18:20;103106.59;;;2.00;100.00
72896;BME280;61036;53.224;6.554;2023-03-01T07:20:46;103108.28;;;2.26;100.00
72896;BME280;61036;53.224;6.554;2023-03-01T07:23:11;103105.50;;;2.54;100.00
72896;BME280;61036;53.224;6.554;2023-03-01T07:25:38;103097.38;;;2.73;100.00
72896;BME280;61036;53.224;6.554;2023-03-01T07:28:04;103092.22;;;2.43;100.00
72896;BME280;61036;53.224;6.554;2023-03-01T07:30:29;103099.44;;;2.10;100.00
72896;BME280;61036;53.224;6.554;2023-03-01T07:32:55;103094.09;;;2.19;100.00
72896;BME280;61036;53.224;6.554;2023-03-01T07:35:22;103095.78;;;2.40;100.00
72896;BME280;61036;53.224;6.554;2023-03-01T07:37:48;103102.72;;;2.72;100.00
72896;BME280;61036;53.224;6.554;2023-03-01T07:40:14;103089.13;;;3.13;100.00
72896;BME280;61036;53.224;6.554;2023-03-01T07:42:39;103097.94;;;3.20;100.00
72896;BME280;61036;53.224;6.554;2023-03-01T07:45:05;103097.72;;;3.44;100.00
72896;BME280;61036;53.224;6.554;2023-03-01T07:47:31;103091.47;;;3.49;100.00
72896;BME280;61036;53.224;6.554;2023-03-01T07:49:57;103090.41;;;3.66;100.00
72896;BME280;61036;53.224;6.554;2023-03-01T07:52:22;103094.03;;;3.59;100.00
72896;BME280;61036;53.224;6.554;2023-03-01T07:54:50;103091.22;;;3.75;100.00
72896;BME280;61036;53.224;6.554;2023-03-01T07:57:16;103093.84;;;3.78;100.00
72896;BME280;61036;53.224;6.554;2023-03-01T07:59:41;103086.97;;;4.34;100.00
72896;BME280;61036;53.224;6.554;2023-03-01T08:02:08;103094.28;;;5.88;100.00
72896;BME280;61036;53.224;6.554;2023-03-01T08:04:33;103082.56;;;8.77;100.00
72896;BME280;61036;53.224;6.554;2023-03-01T08:06:59;103067.75;;;11.11;100.00
72896;BME280;61036;53.224;6.554;2023-03-01T08:09:25;103055.66;;;11.83;100.00
72896;BME280;61036;53.224;6.554;2023-03-01T08:11:50;103059.53;;;13.81;90.89
72896;BME280;61036;53.224;6.554;2023-03-01T08:14:16;103064.81;;;13.84;85.67
72896;BME280;61036;53.224;6.554;2023-03-01T08:16:42;103055.63;;;13.86;85.32
72896;BME280;61036;53.224;6.554;2023-03-01T08:19:13;103059.69;;;14.77;83.01
72896;BME280;61036;53.224;6.554;2023-03-01T08:21:39;103062.53;;;15.06;78.42
72896;BME280;61036;53.224;6.554;2023-03-01T08:24:05;103056.84;;;15.11;77.75
72896;BME280;61036;53.224;6.554;2023-03-01T08:26:34;103054.09;;;14.31;81.28
72896;BME280;61036;53.224;6.554;2023-03-01T08:29:02;103059.28;;;11.82;98.83
72896;BME280;61036;53.224;6.554;2023-03-01T08:31:31;103061.41;;;12.73;97.19
72896;BME280;61036;53.224;6.554;2023-03-01T08:33:59;103061.69;;;11.69;100.00
72896;BME280;61036;53.224;6.554;2023-03-01T08:36:27;103068.31;;;9.80;100.00
72896;BME280;61036;53.224;6.554;2023-03-01T08:38:52;103065.09;;;11.32;100.00
72896;BME280;61036;53.224;6.554;2023-03-01T08:41:18;103058.16;;;11.04;100.00
72896;BME280;61036;53.224;6.554;2023-03-01T08:43:44;103057.09;;;10.86;100.00
72896;BME280;61036;53.224;6.554;2023-03-01T08:46:10;103057.22;;;11.48;100.00
72896;BME280;61036;53.224;6.554;2023-03-01T08:48:35;103052.03;;;12.04;100.00
72896;BME280;61036;53.224;6.554;2023-03-01T08:51:13;103055.78;;;10.29;98.88
72896;BME280;61036;53.224;6.554;2023-03-01T08:53:39;103054.94;;;10.72;100.00
72896;BME280;61036;53.224;6.554;2023-03-01T08:56:06;103056.00;;;11.96;100.00
72896;BME280;61036;53.224;6.554;2023-03-01T08:58:32;103050.91;;;13.03;77.91
72896;BME280;61036;53.224;6.554;2023-03-01T09:00:57;103055.41;;;12.28;87.49
72896;BME280;61036;53.224;6.554;2023-03-01T09:03:24;103050.44;;;11.58;88.67
72896;BME280;61036;53.224;6.554;2023-03-01T09:05:51;103055.44;;;10.60;97.91
72896;BME280;61036;53.224;6.554;2023-03-01T09:08:17;103047.69;;;10.96;93.81
72896;BME280;61036;53.224;6.554;2023-03-01T09:10:43;103056.72;;;10.03;100.00
72896;BME280;61036;53.224;6.554;2023-03-01T09:13:09;103049.63;;;8.70;100.00
72896;BME280;61036;53.224;6.554;2023-03-01T09:15:37;103058.81;;;7.37;100.00
72896;BME280;61036;53.224;6.554;2023-03-01T09:18:03;103042.66;;;7.04;100.00
72896;BME280;61036;53.224;6.554;2023-03-01T09:20:30;103044.75;;;7.60;100.00
72896;BME280;61036;53.224;6.554;2023-03-01T09:22:57;103049.09;;;7.97;100.00
72896;BME280;61036;53.224;6.554;2023-03-01T09:25:23;103042.03;;;8.55;100.00
72896;BME280;61036;53.224;6.554;2023-03-01T09:27:53;103024.84;;;11.46;93.11
72896;BME280;61036;53.224;6.554;2023-03-01T09:30:20;103031.69;;;8.41;99.38
72896;BME280;61036;53.224;6.554;2023-03-01T09:32:48;103036.03;;;9.28;100.00
72896;BME280;61036;53.224;6.554;2023-03-01T09:35:13;103028.69;;;9.33;100.00
72896;BME280;61036;53.224;6.554;2023-03-01T09:37:39;103027.31;;;8.67;100.00
72896;BME280;61036;53.224;6.554;2023-03-01T09:40:28;103035.78;;;10.10;100.00
72896;BME280;61036;53.224;6.554;2023-03-01T09:45:34;103032.00;;;9.67;100.00
72896;BME280;61036;53.224;6.554;2023-03-01T09:48:02;103026.88;;;10.33;93.25
72896;BME280;61036;53.224;6.554;2023-03-01T09:50:34;103035.81;;;10.57;95.93
72896;BME280;61036;53.224;6.554;2023-03-01T09:53:10;103038.09;;;8.65;100.00
72896;BME280;61036;53.224;6.554;2023-03-01T09:58:48;103030.66;;;10.72;88.90
72896;BME280;61036;53.224;6.554;2023-03-01T10:04:39;103028.31;;;11.50;89.20
72896;BME280;61036;53.224;6.554;2023-03-01T10:09:37;103035.09;;;13.98;81.58
72896;BME280;61036;53.224;6.554;2023-03-01T10:12:09;103034.41;;;18.13;43.09
72896;BME280;61036;53.224;6.554;2023-03-01T10:15:00;103028.38;;;20.99;34.85
72896;BME280;61036;53.224;6.554;2023-03-01T10:19:55;103039.41;;;14.35;60.60
72896;BME280;61036;53.224;6.554;2023-03-01T10:22:27;103033.09;;;16.17;51.58
72896;BME280;61036;53.224;6.554;2023-03-01T10:24:56;103033.00;;;13.35;70.27
72896;BME280;61036;53.224;6.554;2023-03-01T10:30:16;103038.09;;;13.24;70.66
72896;BME280;61036;53.224;6.554;2023-03-01T10:32:45;103035.31;;;14.60;69.53
72896;BME280;61036;53.224;6.554;2023-03-01T10:35:23;103039.63;;;10.27;91.36
72896;BME280;61036;53.224;6.554;2023-03-01T10:38:09;103039.97;;;8.91;99.85
72896;BME280;61036;53.224;6.554;2023-03-01T10:40:53;103034.66;;;9.42;100.00
72896;BME280;61036;53.224;6.554;2023-03-01T10:43:20;103017.72;;;8.58;100.00
72896;BME280;61036;53.224;6.554;2023-03-01T10:45:46;103014.47;;;8.17;100.00
72896;BME280;61036;53.224;6.554;2023-03-01T10:48:15;103009.88;;;8.51;100.00
72896;BME280;61036;53.224;6.554;2023-03-01T10:50:46;103002.03;;;8.73;100.00
72896;BME280;61036;53.224;6.554;2023-03-01T10:53:34;103010.44;;;8.32;100.00
72896;BME280;61036;53.224;6.554;2023-03-01T10:58:30;103011.84;;;7.53;100.00
72896;BME280;61036;53.224;6.554;2023-03-01T11:00:58;103007.03;;;8.83;100.00
72896;BME280;61036;53.224;6.554;2023-03-01T11:03:34;103009.09;;;8.17;100.00
72896;BME280;61036;53.224;6.554;2023-03-01T11:08:34;103005.53;;;8.17;100.00
72896;BME280;61036;53.224;6.554;2023-03-01T11:11:14;103010.41;;;8.34;100.00
72896;BME280;61036;53.224;6.554;2023-03-01T11:14:00;103006.94;;;8.00;100.00
72896;BME280;61036;53.224;6.554;2023-03-01T11:16:36;103015.47;;;7.84;100.00
72896;BME280;61036;53.224;6.554;2023-03-01T11:21:37;103008.38;;;8.42;100.00
72896;BME280;61036;53.224;6.554;2023-03-01T11:24:06;103004.72;;;8.99;100.00
72896;BME280;61036;53.224;6.554;2023-03-01T11:26:39;103011.56;;;8.25;100.00
72896;BME280;61036;53.224;6.554;2023-03-01T11:29:37;103006.13;;;8.56;100.00
72896;BME280;61036;53.224;6.554;2023-03-01T11:32:01;103010.13;;;8.13;100.00
72896;BME280;61036;53.224;6.554;2023-03-01T11:40:29;102998.41;;;9.00;100.00
72896;BME280;61036;53.224;6.554;2023-03-01T11:48:36;102994.88;;;8.14;100.00
72896;BME280;61036;53.224;6.554;2023-03-01T11:51:19;102995.88;;;7.80;100.00
72896;BME280;61036;53.224;6.554;2023-03-01T11:53:55;102991.03;;;8.52;100.00
72896;BME280;61036;53.224;6.554;2023-03-01T11:56:36;102991.63;;;8.02;100.00
72896;BME280;61036;53.224;6.554;2023-03-01T11:59:52;102986.34;;;7.99;100.00
72896;BME280;61036;53.224;6.554;2023-03-01T12:01:59;102998.66;;;7.77;100.00
72896;BME280;61036;53.224;6.554;2023-03-01T12:21:21;102953.00;;;7.77;100.00
72896;BME280;61036;53.224;6.554;2023-03-01T12:29:42;102941.13;;;8.14;100.00
72896;BME280;61036;53.224;6.554;2023-03-01T12:33:17;102936.72;;;8.11;100.00
72896;BME280;61036;53.224;6.554;2023-03-01T12:35:36;102925.47;;;8.83;100.00
72896;BME280;61036;53.224;6.554;2023-03-01T12:41:29;102929.94;;;8.28;100.00
72896;BME280;61036;53.224;6.554;2023-03-01T12:47:11;102921.69;;;8.34;100.00
72896;BME280;61036;53.224;6.554;2023-03-01T12:49:44;102919.75;;;8.39;100.00
72896;BME280;61036;53.224;6.554;2023-03-01T12:52:19;102912.00;;;8.56;100.00
72896;BME280;61036;53.224;6.554;2023-03-01T12:54:49;102907.50;;;8.29;100.00
72896;BME280;61036;53.224;6.554;2023-03-01T12:57:30;102907.34;;;8.88;100.00
72896;BME280;61036;53.224;6.554;2023-03-01T13:06:35;102898.97;;;8.70;100.00
72896;BME280;61036;53.224;6.554;2023-03-01T13:11:49;102898.22;;;7.83;100.00
72896;BME280;61036;53.224;6.554;2023-03-01T13:16:46;102903.31;;;8.75;100.00
72896;BME280;61036;53.224;6.554;2023-03-01T13:19:25;102892.31;;;7.99;100.00
72896;BME280;61036;53.224;6.554;2023-03-01T13:21:53;102896.59;;;7.77;100.00
72896;BME280;61036;53.224;6.554;2023-03-01T13:24:39;102882.97;;;8.11;100.00
72896;BME280;61036;53.224;6.554;2023-03-01T13:27:20;102876.69;;;8.12;100.00
72896;BME280;61036;53.224;6.554;2023-03-01T13:29:56;102877.78;;;8.61;100.00
72896;BME280;61036;53.224;6.554;2023-03-01T13:32:28;102878.72;;;9.10;100.00
72896;BME280;61036;53.224;6.554;2023-03-01T13:34:59;102880.97;;;8.18;100.00
72896;BME280;61036;53.224;6.554;2023-03-01T13:37:28;102871.88;;;8.50;100.00
72896;BME280;61036;53.224;6.554;2023-03-01T13:39:58;102863.78;;;7.67;100.00
72896;BME280;61036;53.224;6.554;2023-03-01T13:42:37;102866.16;;;7.76;100.00
72896;BME280;61036;53.224;6.554;2023-03-01T13:45:31;102863.59;;;8.01;100.00
72896;BME280;61036;53.224;6.554;2023-03-01T13:47:58;102870.84;;;8.26;100.00
72896;BME280;61036;53.224;6.554;2023-03-01T13:50:29;102861.66;;;8.05;100.00
72896;BME280;61036;53.224;6.554;2023-03-01T13:53:00;102865.22;;;8.06;100.00
72896;BME280;61036;53.224;6.554;2023-03-01T13:56:12;102866.81;;;8.41;100.00
72896;BME280;61036;53.224;6.554;2023-03-01T13:59:18;102858.50;;;7.92;100.00
72896;BME280;61036;53.224;6.554;2023-03-01T14:01:57;102859.97;;;8.31;100.00
72896;BME280;61036;53.224;6.554;2023-03-01T14:04:28;102862.41;;;8.38;100.00
72896;BME280;61036;53.224;6.554;2023-03-01T14:09:41;102853.38;;;8.13;100.00
72896;BME280;61036;53.224;6.554;2023-03-01T14:18:02;102856.84;;;8.16;100.00
72896;BME280;61036;53.224;6.554;2023-03-01T14:20:33;102850.44;;;8.20;100.00
72896;BME280;61036;53.224;6.554;2023-03-01T14:23:10;102848.50;;;8.24;100.00
72896;BME280;61036;53.224;6.554;2023-03-01T14:25:37;102841.16;;;8.57;100.00
72896;BME280;61036;53.224;6.554;2023-03-01T14:28:15;102835.88;;;8.28;100.00
72896;BME280;61036;53.224;6.554;2023-03-01T14:30:44;102841.00;;;8.62;100.00
72896;BME280;61036;53.224;6.554;2023-03-01T14:33:28;102836.91;;;8.50;100.00
72896;BME280;61036;53.224;6.554;2023-03-01T14:41:06;102826.66;;;8.35;100.00